Time;durP1;ratioP1;P1;durP2;ratioP2;P2;SDS_P1;SDS_P2;PMS_P1;PMS_P2;Temp;Humidity;BMP_temperature;BMP_pressure;BME280_temperature;BME280_humidity;BME280_pressure;Samples;Min_cycle;Max_cycle;Signal;HPM_P1;HPM_P2
2023/09/14 00:02:04;0.00;0.00;0.62;0.00;0.00;0.62;2.10;1.30;;;29.30;28.30;;;;;;2264354;61;20394;-56
2023/09/14 00:04:48;0.00;0.00;0.62;0.00;0.00;0.62;4.67;1.60;;;29.30;28.30;;;;;;2264885;61;20372;-56
2023/09/14 00:07:33;0.00;0.00;0.62;0.00;0.00;0.62;2.77;1.60;;;29.30;28.30;;;;;;2264525;61;20666;-53
2023/09/14 00:10:18;0.00;0.00;0.62;0.00;0.00;0.62;4.07;2.20;;;29.20;28.20;;;;;;2264926;61;20487;-59
2023/09/14 00:13:04;0.00;0.00;0.62;0.00;0.00;0.62;3.10;1.83;;;29.20;28.20;;;;;;2265126;61;20368;-60
2023/09/14 00:15:48;0.00;0.00;0.62;0.00;0.00;0.62;3.13;1.43;;;29.20;28.20;;;;;;2264883;61;20847;-57
2023/09/14 00:18:34;0.00;0.00;0.62;0.00;0.00;0.62;3.00;1.70;;;29.20;28.20;;;;;;2264610;61;20461;-59
2023/09/14 00:21:19;0.00;0.00;0.62;0.00;0.00;0.62;2.17;1.47;;;29.20;28.20;;;;;;2265111;61;20383;-65
2023/09/14 00:24:05;0.00;0.00;0.62;0.00;0.00;0.62;2.00;1.37;;;29.20;28.20;;;;;;2264983;61;20906;-56
2023/09/14 00:26:50;0.00;0.00;0.62;0.00;0.00;0.62;3.43;1.80;;;29.20;28.20;;;;;;2264816;61;20364;-59
2023/09/14 00:29:34;0.00;0.00;0.62;0.00;0.00;0.62;3.10;1.80;;;29.20;28.20;;;;;;2264333;61;20447;-52
2023/09/14 00:32:19;0.00;0.00;0.62;0.00;0.00;0.62;2.90;2.17;;;29.20;28.20;;;;;;2264406;61;20388;-57
2023/09/14 00:35:06;0.00;0.00;0.62;0.00;0.00;0.62;2.30;1.20;;;29.20;28.20;;;;;;2265122;61;20368;-59
2023/09/14 00:37:51;0.00;0.00;0.62;0.00;0.00;0.62;2.67;1.80;;;29.20;28.20;;;;;;2264276;61;20406;-51
2023/09/14 00:40:35;0.00;0.00;0.62;0.00;0.00;0.62;2.87;1.70;;;29.10;28.10;;;;;;2264908;61;20379;-58
2023/09/14 00:43:20;0.00;0.00;0.62;0.00;0.00;0.62;3.20;2.13;;;29.10;28.10;;;;;;2264894;61;20450;-62
2023/09/14 00:46:07;0.00;0.00;0.62;0.00;0.00;0.62;2.43;1.57;;;29.20;28.10;;;;;;2264724;61;20364;-57
2023/09/14 00:48:52;0.00;0.00;0.62;0.00;0.00;0.62;4.23;2.23;;;29.10;28.10;;;;;;2263866;61;20928;-56
2023/09/14 00:51:38;0.00;0.00;0.62;0.00;0.00;0.62;2.57;1.30;;;29.10;28.10;;;;;;2264767;61;20356;-62
2023/09/14 00:54:23;0.00;0.00;0.62;0.00;0.00;0.62;2.60;1.70;;;29.10;28.10;;;;;;2264809;61;20490;-57
2023/09/14 00:57:07;0.00;0.00;0.62;0.00;0.00;0.62;2.53;1.63;;;29.10;28.10;;;;;;2264986;61;20954;-57
2023/09/14 00:59:53;0.00;0.00;0.62;0.00;0.00;0.62;2.80;1.83;;;29.10;28.00;;;;;;2264125;61;20376;-57
2023/09/14 01:02:39;0.00;0.00;0.62;0.00;0.00;0.62;3.00;1.73;;;29.10;28.00;;;;;;2260026;61;20371;-57
2023/09/14 01:05:28;0.00;0.00;0.62;0.00;0.00;0.62;2.77;1.43;;;29.10;28.00;;;;;;2268314;61;20474;-59
2023/09/14 01:08:14;0.00;0.00;0.62;0.00;0.00;0.62;3.40;1.80;;;29.00;28.00;;;;;;2268152;61;20885;-53
2023/09/14 01:10:58;0.00;0.00;0.62;0.00;0.00;0.62;4.60;2.17;;;29.10;28.00;;;;;;2268607;61;20935;-59
2023/09/14 01:13:55;0.00;0.00;0.62;0.00;0.00;0.62;3.10;2.13;;;29.10;28.00;;;;;;2267415;61;20868;-54
2023/09/14 01:16:46;0.00;0.00;0.62;0.00;0.00;0.62;2.87;1.60;;;29.10;28.00;;;;;;2268672;61;20390;-62
2023/09/14 01:19:47;0.00;0.00;0.62;0.00;0.00;0.62;2.83;1.60;;;29.10;28.00;;;;;;2265765;61;20408;-54
2023/09/14 01:22:42;0.00;0.00;0.62;0.00;0.00;0.62;3.40;1.53;;;29.10;28.60;;;;;;2264181;61;20364;-59
2023/09/14 01:25:40;0.00;0.00;0.62;0.00;0.00;0.62;3.10;1.83;;;29.00;28.00;;;;;;2264272;61;20388;-58
2023/09/14 01:28:25;0.00;0.00;0.62;0.00;0.00;0.62;2.43;1.77;;;29.00;28.00;;;;;;2263881;61;20396;-57
2023/09/14 01:31:10;0.00;0.00;0.62;0.00;0.00;0.62;4.00;1.80;;;29.00;28.00;;;;;;2264523;61;20392;-59
2023/09/14 01:33:55;0.00;0.00;0.62;0.00;0.00;0.62;3.57;1.90;;;29.00;28.00;;;;;;2264794;61;20759;-58
2023/09/14 01:36:47;0.00;0.00;0.62;0.00;0.00;0.62;3.13;2.07;;;29.00;28.00;;;;;;2267510;61;20920;-58
2023/09/14 01:39:34;0.00;0.00;0.62;0.00;0.00;0.62;2.80;1.90;;;29.00;28.00;;;;;;2267721;61;20433;-59
2023/09/14 01:42:22;0.00;0.00;0.62;0.00;0.00;0.62;2.37;1.30;;;29.00;27.90;;;;;;2268239;61;21037;-59
2023/09/14 01:45:09;0.00;0.00;0.62;0.00;0.00;0.62;2.50;1.80;;;29.00;28.30;;;;;;2268285;61;20367;-59
2023/09/14 01:47:56;0.00;0.00;0.62;0.00;0.00;0.62;2.90;1.77;;;29.00;27.90;;;;;;2268235;61;20387;-52
2023/09/14 01:50:40;0.00;0.00;0.62;0.00;0.00;0.62;2.43;1.70;;;28.90;27.90;;;;;;2268586;61;20889;-59
2023/09/14 01:53:25;0.00;0.00;0.62;0.00;0.00;0.62;2.77;1.70;;;28.90;27.90;;;;;;2268756;61;20889;-60
2023/09/14 01:56:10;0.00;0.00;0.62;0.00;0.00;0.62;3.07;1.70;;;28.90;27.90;;;;;;2268773;61;20362;-56
2023/09/14 01:58:57;0.00;0.00;0.62;0.00;0.00;0.62;2.60;1.57;;;28.90;27.90;;;;;;2264706;61;21019;-53
2023/09/14 02:01:42;0.00;0.00;0.62;0.00;0.00;0.62;5.37;1.93;;;28.90;27.90;;;;;;2506621;53;20405;-58
2023/09/14 02:04:26;0.00;0.00;0.62;0.00;0.00;0.62;3.47;1.50;;;28.90;27.80;;;;;;2268348;61;20403;-58
2023/09/14 02:07:11;0.00;0.00;0.62;0.00;0.00;0.62;2.20;1.20;;;28.90;27.80;;;;;;2268358;61;20452;-59
2023/09/14 02:09:56;0.00;0.00;0.62;0.00;0.00;0.62;4.33;1.67;;;28.90;27.80;;;;;;2267652;61;20423;-59
2023/09/14 02:12:41;0.00;0.00;0.62;0.00;0.00;0.62;2.37;1.50;;;28.90;27.80;;;;;;2268182;61;20363;-56
2023/09/14 02:15:27;0.00;0.00;0.62;0.00;0.00;0.62;2.03;1.23;;;28.90;27.80;;;;;;2268419;61;20376;-58
2023/09/14 02:18:11;0.00;0.00;0.62;0.00;0.00;0.62;2.97;1.53;;;28.90;27.80;;;;;;2268256;61;20363;-59
2023/09/14 02:20:56;0.00;0.00;0.62;0.00;0.00;0.62;2.10;1.50;;;28.90;27.80;;;;;;2268251;61;20367;-57
2023/09/14 02:23:40;0.00;0.00;0.62;0.00;0.00;0.62;2.77;1.47;;;28.90;27.80;;;;;;2268103;61;20797;-59
2023/09/14 02:26:25;0.00;0.00;0.62;0.00;0.00;0.62;3.33;1.50;;;28.90;27.80;;;;;;2268860;61;20394;-56
2023/09/14 02:29:09;0.00;0.00;0.62;0.00;0.00;0.62;4.07;1.73;;;28.90;27.80;;;;;;2267199;61;20448;-65
2023/09/14 02:31:55;0.00;0.00;0.62;0.00;0.00;0.62;2.87;1.57;;;28.90;27.80;;;;;;2264486;61;20398;-53
2023/09/14 02:34:40;0.00;0.00;0.62;0.00;0.00;0.62;2.83;1.57;;;28.90;27.80;;;;;;2264406;61;20741;-54
2023/09/14 02:37:25;0.00;0.00;0.62;0.00;0.00;0.62;3.37;1.63;;;28.90;27.80;;;;;;2263923;61;20920;-56
2023/09/14 02:40:10;0.00;0.00;0.62;0.00;0.00;0.62;1.87;1.10;;;28.90;27.80;;;;;;2263986;61;20398;-56
2023/09/14 02:42:55;0.00;0.00;0.62;0.00;0.00;0.62;3.13;1.80;;;28.90;27.80;;;;;;2269450;61;20399;-53
2023/09/14 02:45:40;0.00;0.00;0.62;0.00;0.00;0.62;5.90;1.50;;;28.80;27.80;;;;;;2266013;61;20362;-56
2023/09/14 02:48:26;0.00;0.00;0.62;0.00;0.00;0.62;3.20;1.70;;;28.80;27.80;;;;;;2267941;61;20525;-56
2023/09/14 02:51:10;0.00;0.00;0.62;0.00;0.00;0.62;2.63;1.50;;;28.80;27.80;;;;;;2267813;61;20881;-50
2023/09/14 02:53:55;0.00;0.00;0.62;0.00;0.00;0.62;3.20;1.60;;;28.80;27.80;;;;;;2268525;61;20363;-50
2023/09/14 02:56:41;0.00;0.00;0.62;0.00;0.00;0.62;2.60;1.40;;;28.80;27.70;;;;;;2268027;61;20832;-54
2023/09/14 02:59:26;0.00;0.00;0.62;0.00;0.00;0.62;3.80;1.70;;;28.80;27.70;;;;;;2267355;61;20376;-51
2023/09/14 03:02:11;0.00;0.00;0.62;0.00;0.00;0.62;2.60;1.50;;;28.80;27.70;;;;;;2268108;61;20913;-51
2023/09/14 03:04:57;0.00;0.00;0.62;0.00;0.00;0.62;2.57;1.53;;;28.80;27.70;;;;;;2267877;61;20362;-50
2023/09/14 03:07:42;0.00;0.00;0.62;0.00;0.00;0.62;3.93;1.40;;;28.70;27.70;;;;;;2267823;61;20371;-48
2023/09/14 03:10:27;0.00;0.00;0.62;0.00;0.00;0.62;2.17;1.20;;;28.80;27.70;;;;;;2265230;61;20788;-56
2023/09/14 03:13:12;0.00;0.00;0.62;0.00;0.00;0.62;3.47;1.87;;;28.80;27.70;;;;;;2267879;61;20409;-54
2023/09/14 03:15:59;0.00;0.00;0.62;0.00;0.00;0.62;3.57;1.70;;;28.80;27.70;;;;;;2267923;61;20820;-56
2023/09/14 03:18:45;0.00;0.00;0.62;0.00;0.00;0.62;2.53;1.33;;;28.70;27.60;;;;;;2267546;61;20896;-53
2023/09/14 03:21:31;0.00;0.00;0.62;0.00;0.00;0.62;2.87;1.87;;;28.70;27.60;;;;;;2265089;61;20374;-52
2023/09/14 03:24:17;0.00;0.00;0.62;0.00;0.00;0.62;1.97;1.40;;;28.70;27.60;;;;;;2267834;61;20394;-55
2023/09/14 03:27:02;0.00;0.00;0.62;0.00;0.00;0.62;2.73;1.50;;;28.70;27.60;;;;;;2267865;61;20358;-52
2023/09/14 03:29:47;0.00;0.00;0.62;0.00;0.00;0.62;4.00;2.47;;;28.70;27.60;;;;;;2267500;61;20521;-56
2023/09/14 03:32:33;0.00;0.00;0.62;0.00;0.00;0.62;4.20;2.00;;;28.70;27.60;;;;;;2267745;61;20442;-58
2023/09/14 03:35:18;0.00;0.00;0.62;0.00;0.00;0.62;3.37;2.00;;;28.70;27.60;;;;;;2268075;61;21034;-52
2023/09/14 03:38:04;0.00;0.00;0.62;0.00;0.00;0.62;3.50;2.20;;;28.70;27.60;;;;;;2268360;61;20447;-53
2023/09/14 03:40:49;0.00;0.00;0.62;0.00;0.00;0.62;2.53;1.60;;;28.60;27.50;;;;;;2268641;61;20800;-49
2023/09/14 03:43:33;0.00;0.00;0.62;0.00;0.00;0.62;3.53;2.33;;;28.70;27.60;;;;;;2268863;61;20414;-53
2023/09/14 03:46:18;0.00;0.00;0.62;0.00;0.00;0.62;3.30;1.93;;;28.70;27.60;;;;;;2269008;61;20429;-51
2023/09/14 03:49:06;0.00;0.00;0.62;0.00;0.00;0.62;3.00;2.20;;;28.70;27.60;;;;;;2268017;61;20398;-51
2023/09/14 03:51:51;0.00;0.00;0.62;0.00;0.00;0.62;3.30;2.30;;;28.70;27.60;;;;;;2268638;61;20409;-52
2023/09/14 03:54:37;0.00;0.00;0.62;0.00;0.00;0.62;3.73;2.20;;;28.60;27.50;;;;;;2269089;61;20813;-52
2023/09/14 03:57:24;0.00;0.00;0.62;0.00;0.00;0.62;3.30;2.20;;;28.60;27.50;;;;;;2268339;61;20841;-52
2023/09/14 04:00:10;0.00;0.00;0.62;0.00;0.00;0.62;3.77;1.97;;;28.60;27.50;;;;;;2268500;61;20782;-55
2023/09/14 04:02:58;0.00;0.00;0.62;0.00;0.00;0.62;3.10;2.10;;;28.60;27.50;;;;;;2268835;61;20363;-51
2023/09/14 04:05:43;0.00;0.00;0.62;0.00;0.00;0.62;7.63;1.80;;;28.60;27.50;;;;;;2268396;61;20432;-56
2023/09/14 04:08:28;0.00;0.00;0.62;0.00;0.00;0.62;3.20;1.87;;;28.60;27.50;;;;;;2267678;61;20529;-49
2023/09/14 04:11:14;0.00;0.00;0.62;0.00;0.00;0.62;2.20;1.60;;;28.60;27.50;;;;;;2268934;61;20854;-52
2023/09/14 04:13:59;0.00;0.00;0.62;0.00;0.00;0.62;4.30;2.13;;;28.60;27.50;;;;;;2268342;61;20458;-50
2023/09/14 04:16:44;0.00;0.00;0.62;0.00;0.00;0.62;3.40;2.03;;;28.60;27.50;;;;;;2268219;61;20399;-56
2023/09/14 04:19:30;0.00;0.00;0.62;0.00;0.00;0.62;3.17;1.63;;;28.60;27.50;;;;;;2267718;61;20384;-51
2023/09/14 04:22:19;0.00;0.00;0.62;0.00;0.00;0.62;2.27;1.50;;;28.60;27.50;;;;;;2269033;61;20897;-48
2023/09/14 04:25:06;0.00;0.00;0.62;0.00;0.00;0.62;3.00;1.77;;;28.60;27.50;;;;;;2268821;61;20386;-50
2023/09/14 04:27:52;0.00;0.00;0.62;0.00;0.00;0.62;3.60;1.70;;;28.50;27.40;;;;;;2267958;61;20363;-55
2023/09/14 04:30:43;0.00;0.00;0.62;0.00;0.00;0.62;3.77;1.60;;;28.50;27.40;;;;;;2268721;61;20371;-53
2023/09/14 04:33:33;0.00;0.00;0.62;0.00;0.00;0.62;2.87;1.77;;;28.50;27.50;;;;;;2268521;61;20429;-56
2023/09/14 04:36:19;0.00;0.00;0.62;0.00;0.00;0.62;3.40;2.10;;;28.50;27.40;;;;;;2268301;61;20481;-55
2023/09/14 04:39:05;0.00;0.00;0.62;0.00;0.00;0.62;3.07;1.63;;;28.50;27.40;;;;;;2265171;61;20437;-50
2023/09/14 04:41:51;0.00;0.00;0.62;0.00;0.00;0.62;3.03;1.97;;;28.50;27.40;;;;;;2268003;61;20406;-58
2023/09/14 04:44:36;0.00;0.00;0.62;0.00;0.00;0.62;4.17;1.87;;;28.50;27.40;;;;;;2268313;61;20823;-54
2023/09/14 04:47:21;0.00;0.00;0.62;0.00;0.00;0.62;3.23;2.20;;;28.50;27.40;;;;;;2268779;61;20367;-54
2023/09/14 04:50:07;0.00;0.00;0.62;0.00;0.00;0.62;3.43;2.13;;;28.50;27.40;;;;;;2267765;61;20719;-53
2023/09/14 04:52:52;0.00;0.00;0.62;0.00;0.00;0.62;2.40;1.93;;;28.50;27.40;;;;;;2268681;61;20363;-52
2023/09/14 04:55:37;0.00;0.00;0.62;0.00;0.00;0.62;2.60;1.77;;;28.50;27.40;;;;;;2268576;61;20367;-54
2023/09/14 04:58:22;0.00;0.00;0.62;0.00;0.00;0.62;2.87;1.60;;;28.50;27.40;;;;;;2267844;61;20940;-56
2023/09/14 05:01:08;0.00;0.00;0.62;0.00;0.00;0.62;2.70;2.00;;;28.40;27.90;;;;;;2268301;61;20387;-54
2023/09/14 05:03:53;0.00;0.00;0.62;0.00;0.00;0.62;3.23;2.00;;;28.40;27.30;;;;;;2268025;61;20363;-58
2023/09/14 05:06:38;0.00;0.00;0.62;0.00;0.00;0.62;2.40;1.73;;;28.40;27.30;;;;;;2268378;61;20413;-52
2023/09/14 05:09:23;0.00;0.00;0.62;0.00;0.00;0.62;4.17;1.97;;;28.40;27.30;;;;;;2267807;61;21031;-53
2023/09/14 05:12:08;0.00;0.00;0.62;0.00;0.00;0.62;2.40;1.43;;;28.40;27.30;;;;;;2268431;61;20790;-54
2023/09/14 05:14:53;0.00;0.00;0.62;0.00;0.00;0.62;2.70;1.57;;;28.40;27.30;;;;;;2268616;61;20366;-55
2023/09/14 05:17:39;0.00;0.00;0.62;0.00;0.00;0.62;2.73;1.67;;;28.40;27.30;;;;;;2268349;61;20457;-54
2023/09/14 05:20:23;0.00;0.00;0.62;0.00;0.00;0.62;2.10;1.40;;;28.40;27.30;;;;;;2268426;61;20494;-52
2023/09/14 05:23:08;0.00;0.00;0.62;0.00;0.00;0.62;2.47;1.50;;;28.40;27.30;;;;;;2268138;61;20359;-60
2023/09/14 05:25:52;0.00;0.00;0.62;0.00;0.00;0.62;2.60;1.10;;;28.40;27.30;;;;;;2268160;61;20367;-54
2023/09/14 05:28:38;0.00;0.00;0.62;0.00;0.00;0.62;3.70;1.80;;;28.40;27.30;;;;;;2268340;61;20475;-54
2023/09/14 05:31:23;0.00;0.00;0.62;0.00;0.00;0.62;3.60;1.60;;;28.40;27.30;;;;;;2267888;61;20362;-61
2023/09/14 05:34:09;0.00;0.00;0.62;0.00;0.00;0.62;3.90;1.83;;;28.30;27.30;;;;;;2267908;61;20359;-54
2023/09/14 05:36:54;0.00;0.00;0.62;0.00;0.00;0.62;3.87;2.30;;;28.40;27.30;;;;;;2268294;61;20448;-54
2023/09/14 05:39:40;0.00;0.00;0.62;0.00;0.00;0.62;4.27;1.97;;;28.40;27.30;;;;;;2267631;61;20399;-57
2023/09/14 05:42:25;0.00;0.00;0.62;0.00;0.00;0.62;2.33;1.40;;;28.30;27.30;;;;;;2268215;61;20497;-54
2023/09/14 05:45:11;0.00;0.00;0.62;0.00;0.00;0.62;3.60;1.80;;;28.30;27.30;;;;;;2268234;61;20367;-53
2023/09/14 05:47:57;0.00;0.00;0.62;0.00;0.00;0.62;3.33;2.27;;;28.30;27.30;;;;;;2267519;61;20409;-53
2023/09/14 05:50:43;0.00;0.00;0.62;0.00;0.00;0.62;2.70;1.57;;;28.30;27.30;;;;;;2268228;61;20382;-54
2023/09/14 05:53:28;0.00;0.00;0.62;0.00;0.00;0.62;2.97;1.50;;;28.30;27.30;;;;;;2268118;61;20626;-54
2023/09/14 05:56:13;0.00;0.00;0.62;0.00;0.00;0.62;3.70;1.80;;;28.30;27.30;;;;;;2268610;61;20413;-52
2023/09/14 05:58:58;0.00;0.00;0.62;0.00;0.00;0.62;3.20;1.80;;;28.30;27.30;;;;;;2267431;61;20437;-53
2023/09/14 06:01:44;0.00;0.00;0.62;0.00;0.00;0.62;2.63;1.77;;;28.30;27.30;;;;;;2268223;61;20459;-54
2023/09/14 06:04:28;0.00;0.00;0.62;0.00;0.00;0.62;3.03;1.90;;;28.30;27.30;;;;;;2267878;61;20911;-55
2023/09/14 06:07:14;0.00;0.00;0.62;0.00;0.00;0.62;4.00;2.03;;;28.30;27.30;;;;;;2268008;61;20786;-52
2023/09/14 06:09:59;0.00;0.00;0.62;0.00;0.00;0.62;3.40;1.90;;;28.30;27.30;;;;;;2267637;61;20399;-55
2023/09/14 06:12:43;0.00;0.00;0.62;0.00;0.00;0.62;3.27;2.10;;;28.30;27.30;;;;;;2268606;61;20413;-57
2023/09/14 06:15:28;0.00;0.00;0.62;0.00;0.00;0.62;2.87;1.77;;;28.30;27.30;;;;;;2268594;61;20409;-57
2023/09/14 06:18:12;0.00;0.00;0.62;0.00;0.00;0.62;3.37;1.83;;;28.30;27.30;;;;;;2267885;61;20359;-53
2023/09/14 06:21:00;0.00;0.00;0.62;0.00;0.00;0.62;4.70;2.00;;;28.30;27.40;;;;;;2268397;61;20409;-54
2023/09/14 06:23:46;0.00;0.00;0.62;0.00;0.00;0.62;3.70;1.67;;;28.30;27.40;;;;;;2268436;61;20811;-54
2023/09/14 06:26:32;0.00;0.00;0.62;0.00;0.00;0.62;4.83;1.70;;;28.30;27.30;;;;;;2268458;61;20416;-53
2023/09/14 06:29:16;0.00;0.00;0.62;0.00;0.00;0.62;2.50;1.77;;;28.30;27.40;;;;;;2268170;61;20391;-54
2023/09/14 06:32:03;0.00;0.00;0.62;0.00;0.00;0.62;2.50;1.83;;;28.30;27.40;;;;;;2268396;61;20883;-54
2023/09/14 06:34:48;0.00;0.00;0.62;0.00;0.00;0.62;3.30;1.83;;;28.30;27.40;;;;;;2268490;61;20404;-51
2023/09/14 06:37:33;0.00;0.00;0.62;0.00;0.00;0.62;3.67;1.80;;;28.30;27.40;;;;;;2268577;61;20399;-48
2023/09/14 06:40:19;0.00;0.00;0.62;0.00;0.00;0.62;3.80;1.83;;;28.30;27.40;;;;;;2267752;61;20436;-54
2023/09/14 06:43:04;0.00;0.00;0.62;0.00;0.00;0.62;4.97;1.60;;;28.30;27.40;;;;;;2268446;61;20420;-54
2023/09/14 06:45:48;0.00;0.00;0.62;0.00;0.00;0.62;2.63;1.70;;;28.30;27.40;;;;;;2268508;61;20960;-50
2023/09/14 06:48:34;0.00;0.00;0.62;0.00;0.00;0.62;2.43;1.53;;;28.30;27.40;;;;;;2267702;61;20395;-51
2023/09/14 06:51:19;0.00;0.00;0.62;0.00;0.00;0.62;3.00;1.70;;;28.30;27.40;;;;;;2268626;61;20904;-55
2023/09/14 06:54:04;0.00;0.00;0.62;0.00;0.00;0.62;2.40;1.60;;;28.30;27.40;;;;;;2268426;61;20358;-53
2023/09/14 06:56:50;0.00;0.00;0.62;0.00;0.00;0.62;2.50;1.70;;;28.20;27.30;;;;;;2268408;61;20371;-53
2023/09/14 06:59:34;0.00;0.00;0.62;0.00;0.00;0.62;3.20;1.67;;;28.30;27.40;;;;;;2267944;61;20383;-62
2023/09/14 07:02:19;0.00;0.00;0.62;0.00;0.00;0.62;2.90;1.80;;;28.30;27.40;;;;;;2268172;61;20362;-54
2023/09/14 07:05:04;0.00;0.00;0.62;0.00;0.00;0.62;3.10;1.97;;;28.30;27.40;;;;;;2268263;61;20879;-51
2023/09/14 07:07:49;0.00;0.00;0.62;0.00;0.00;0.62;2.80;2.03;;;28.30;27.40;;;;;;2268369;61;20420;-58
2023/09/14 07:10:35;0.00;0.00;0.62;0.00;0.00;0.62;4.00;2.03;;;28.30;27.40;;;;;;2268113;61;20455;-53
2023/09/14 07:13:24;0.00;0.00;0.62;0.00;0.00;0.62;2.70;1.60;;;28.30;27.40;;;;;;2269226;61;20894;-55
2023/09/14 07:16:09;0.00;0.00;0.62;0.00;0.00;0.62;2.53;1.70;;;28.30;27.40;;;;;;2268983;61;20777;-52
2023/09/14 07:18:53;0.00;0.00;0.62;0.00;0.00;0.62;2.27;1.53;;;28.30;27.40;;;;;;2268753;61;20425;-51
2023/09/14 07:21:38;0.00;0.00;0.62;0.00;0.00;0.62;3.53;2.20;;;28.30;27.40;;;;;;2269265;61;20460;-53
2023/09/14 07:24:23;0.00;0.00;0.62;0.00;0.00;0.62;2.47;1.70;;;28.30;27.40;;;;;;2268769;61;20409;-52
2023/09/14 07:27:07;0.00;0.00;0.62;0.00;0.00;0.62;4.23;1.90;;;28.30;27.40;;;;;;2269031;61;20362;-51
2023/09/14 07:29:53;0.00;0.00;0.62;0.00;0.00;0.62;3.23;1.70;;;28.30;27.40;;;;;;2268754;61;20391;-49
2023/09/14 07:32:39;0.00;0.00;0.62;0.00;0.00;0.62;3.23;1.60;;;28.30;27.40;;;;;;2268808;61;20371;-53
2023/09/14 07:35:24;0.00;0.00;0.62;0.00;0.00;0.62;2.20;1.50;;;28.20;27.30;;;;;;2268547;61;20362;-50
2023/09/14 07:38:12;0.00;0.00;0.62;0.00;0.00;0.62;2.83;1.87;;;28.30;27.40;;;;;;2267971;61;20433;-50
2023/09/14 07:40:57;0.00;0.00;0.62;0.00;0.00;0.62;3.77;1.87;;;28.30;27.40;;;;;;2268716;61;20401;-53
2023/09/14 07:43:42;0.00;0.00;0.62;0.00;0.00;0.62;4.30;2.20;;;28.30;27.40;;;;;;2268479;61;20457;-50
2023/09/14 07:46:28;0.00;0.00;0.62;0.00;0.00;0.62;3.60;2.23;;;28.30;27.40;;;;;;2268677;61;20815;-49
2023/09/14 07:49:13;0.00;0.00;0.62;0.00;0.00;0.62;2.97;1.93;;;28.30;27.40;;;;;;2267802;61;20452;-49
2023/09/14 07:51:58;0.00;0.00;0.62;0.00;0.00;0.62;3.40;2.30;;;28.30;27.90;;;;;;2269083;61;20379;-50
2023/09/14 07:54:42;0.00;0.00;0.62;0.00;0.00;0.62;3.90;2.30;;;28.30;27.40;;;;;;2268930;61;20405;-51
2023/09/14 07:57:27;0.00;0.00;0.62;0.00;0.00;0.62;4.63;2.27;;;28.30;27.40;;;;;;2268915;61;20448;-49
2023/09/14 08:00:13;0.00;0.00;0.62;0.00;0.00;0.62;3.37;2.03;;;28.30;27.40;;;;;;2268656;61;20374;-48
2023/09/14 08:02:59;0.00;0.00;0.62;0.00;0.00;0.62;3.80;2.20;;;28.30;27.40;;;;;;2268704;61;20366;-54
2023/09/14 08:05:44;0.00;0.00;0.62;0.00;0.00;0.62;4.50;2.13;;;28.30;27.40;;;;;;2269111;61;20896;-54
2023/09/14 08:08:29;0.00;0.00;0.62;0.00;0.00;0.62;3.97;1.90;;;28.30;27.40;;;;;;2268350;61;20933;-53
2023/09/14 08:11:14;0.00;0.00;0.62;0.00;0.00;0.62;3.90;2.07;;;28.30;27.40;;;;;;2268932;61;20351;-53
2023/09/14 08:13:58;0.00;0.00;0.62;0.00;0.00;0.62;4.60;2.10;;;28.30;27.40;;;;;;2268935;61;20366;-53
2023/09/14 08:16:43;0.00;0.00;0.62;0.00;0.00;0.62;2.57;1.93;;;28.30;27.50;;;;;;2268679;61;20391;-51
2023/09/14 08:19:29;0.00;0.00;0.62;0.00;0.00;0.62;3.90;2.30;;;28.30;27.50;;;;;;2268581;61;20880;-57
2023/09/14 08:22:14;0.00;0.00;0.62;0.00;0.00;0.62;3.70;2.13;;;28.30;27.50;;;;;;2268733;61;20934;-53
2023/09/14 08:25:00;0.00;0.00;0.62;0.00;0.00;0.62;3.17;2.10;;;28.30;27.50;;;;;;2268803;61;20383;-52
2023/09/14 08:27:45;0.00;0.00;0.62;0.00;0.00;0.62;3.50;2.20;;;28.30;27.50;;;;;;2268686;61;20363;-50
2023/09/14 08:30:30;0.00;0.00;0.62;0.00;0.00;0.62;2.17;1.30;;;28.30;27.50;;;;;;2268778;61;20390;-51
2023/09/14 08:33:18;0.00;0.00;0.62;0.00;0.00;0.62;3.63;2.13;;;28.30;27.50;;;;;;2268722;61;20382;-53
2023/09/14 08:36:04;0.00;0.00;0.62;0.00;0.00;0.62;3.43;1.80;;;28.30;27.50;;;;;;2268892;61;20405;-53
2023/09/14 08:38:49;0.00;0.00;0.62;0.00;0.00;0.62;3.40;2.03;;;28.30;27.50;;;;;;2267806;61;20802;-50
2023/09/14 08:41:37;0.00;0.00;0.62;0.00;0.00;0.62;3.60;2.13;;;28.30;27.60;;;;;;2268724;61;20835;-55
2023/09/14 08:44:22;0.00;0.00;0.62;0.00;0.00;0.62;2.97;1.73;;;28.30;27.50;;;;;;2268803;61;20916;-56
2023/09/14 08:47:10;0.00;0.00;0.62;0.00;0.00;0.62;3.97;1.90;;;28.30;27.50;;;;;;2268063;61;20417;-55
2023/09/14 08:49:56;0.00;0.00;0.62;0.00;0.00;0.62;2.27;1.40;;;28.30;27.50;;;;;;2267797;61;20395;-55
2023/09/14 08:52:44;0.00;0.00;0.62;0.00;0.00;0.62;3.53;1.93;;;28.30;27.50;;;;;;2268623;61;20818;-54
2023/09/14 08:55:33;0.00;0.00;0.62;0.00;0.00;0.62;3.77;2.00;;;28.30;27.50;;;;;;2268717;61;20383;-56
2023/09/14 08:58:19;0.00;0.00;0.62;0.00;0.00;0.62;3.40;1.87;;;28.30;28.10;;;;;;2268398;61;20363;-53
2023/09/14 09:01:07;0.00;0.00;0.62;0.00;0.00;0.62;3.40;1.90;;;28.30;27.60;;;;;;2268630;61;20973;-54
2023/09/14 09:03:51;0.00;0.00;0.62;0.00;0.00;0.62;3.83;1.70;;;28.30;27.60;;;;;;2541612;53;20420;-53
2023/09/14 09:06:37;0.00;0.00;0.62;0.00;0.00;0.62;2.70;1.77;;;28.30;27.60;;;;;;2268714;61;20362;-53
2023/09/14 09:09:26;0.00;0.00;0.62;0.00;0.00;0.62;3.57;1.70;;;28.30;27.60;;;;;;2268078;61;20928;-54
2023/09/14 09:12:10;0.00;0.00;0.62;0.00;0.00;0.62;3.20;1.43;;;28.30;27.60;;;;;;2268755;61;20370;-54
2023/09/14 09:14:57;0.00;0.00;0.62;0.00;0.00;0.62;2.40;1.30;;;28.30;27.60;;;;;;2268466;61;20363;-59
2023/09/14 09:17:44;0.00;0.00;0.62;0.00;0.00;0.62;2.90;1.70;;;28.30;27.60;;;;;;2268457;61;20422;-56
2023/09/14 09:20:30;0.00;0.00;0.62;0.00;0.00;0.62;3.40;1.37;;;28.40;27.70;;;;;;2268404;61;20398;-56
2023/09/14 09:23:19;0.00;0.00;0.62;0.00;0.00;0.62;3.87;1.37;;;28.40;27.70;;;;;;2268025;61;20367;-56
2023/09/14 09:26:05;0.00;0.00;0.62;0.00;0.00;0.62;4.17;2.20;;;28.40;27.70;;;;;;2268759;61;20359;-54
2023/09/14 09:28:50;0.00;0.00;0.62;0.00;0.00;0.62;2.80;1.53;;;28.40;27.70;;;;;;2267796;61;20803;-53
2023/09/14 09:31:42;0.00;0.00;0.62;0.00;0.00;0.62;2.53;1.40;;;28.40;27.70;;;;;;2268435;61;20362;-55
2023/09/14 09:34:33;0.00;0.00;0.62;0.00;0.00;0.62;2.33;1.50;;;28.40;27.70;;;;;;2268300;61;20900;-55
2023/09/14 09:37:18;0.00;0.00;0.62;0.00;0.00;0.62;2.80;1.60;;;28.40;27.70;;;;;;2268439;61;20406;-52
2023/09/14 09:40:05;0.00;0.00;0.62;0.00;0.00;0.62;2.73;1.47;;;28.40;27.60;;;;;;2268042;61;20387;-53
2023/09/14 09:42:52;0.00;0.00;0.62;0.00;0.00;0.62;3.70;1.50;;;28.40;27.60;;;;;;2268190;61;20417;-52
2023/09/14 09:45:40;0.00;0.00;0.62;0.00;0.00;0.62;3.20;1.70;;;28.40;27.70;;;;;;2268251;61;20399;-52
2023/09/14 09:48:28;0.00;0.00;0.62;0.00;0.00;0.62;2.07;1.30;;;28.40;27.70;;;;;;2268052;61;20932;-56
2023/09/14 09:51:13;0.00;0.00;0.62;0.00;0.00;0.62;2.20;1.30;;;28.40;27.70;;;;;;2268473;61;20798;-53
2023/09/14 09:54:06;0.00;0.00;0.62;0.00;0.00;0.62;2.90;1.83;;;28.50;27.70;;;;;;2268406;61;20410;-51
2023/09/14 09:56:51;0.00;0.00;0.62;0.00;0.00;0.62;2.60;1.10;;;28.50;27.70;;;;;;2268027;61;20378;-56
2023/09/14 09:59:40;0.00;0.00;0.62;0.00;0.00;0.62;3.20;1.30;;;28.40;27.60;;;;;;2267948;61;20402;-55
2023/09/14 10:02:31;0.00;0.00;0.62;0.00;0.00;0.62;2.70;1.43;;;28.50;27.70;;;;;;2268392;61;20404;-56
2023/09/14 10:05:16;0.00;0.00;0.62;0.00;0.00;0.62;2.00;1.17;;;28.50;27.60;;;;;;2268486;61;20865;-51
2023/09/14 10:08:02;0.00;0.00;0.62;0.00;0.00;0.62;2.57;1.20;;;28.50;27.60;;;;;;2267915;61;20371;-59
2023/09/14 10:10:53;0.00;0.00;0.62;0.00;0.00;0.62;1.93;1.23;;;28.50;27.50;;;;;;2268401;61;20367;-50
2023/09/14 10:13:38;0.00;0.00;0.62;0.00;0.00;0.62;3.53;1.80;;;28.50;27.50;;;;;;2268406;61;20359;-55
2023/09/14 10:16:25;0.00;0.00;0.62;0.00;0.00;0.62;3.70;1.60;;;28.50;27.40;;;;;;2268632;61;20367;-54
2023/09/14 10:19:11;0.00;0.00;0.62;0.00;0.00;0.62;1.97;1.33;;;28.50;27.40;;;;;;2267929;61;20441;-49
2023/09/14 10:21:57;0.00;0.00;0.62;0.00;0.00;0.62;1.90;1.20;;;28.50;27.40;;;;;;2268528;61;20363;-54
2023/09/14 10:24:42;0.00;0.00;0.62;0.00;0.00;0.62;1.87;1.20;;;28.50;27.30;;;;;;2267992;61;20493;-51
2023/09/14 10:27:29;0.00;0.00;0.62;0.00;0.00;0.62;2.10;1.50;;;28.50;27.30;;;;;;2268593;61;20762;-59
2023/09/14 10:30:17;0.00;0.00;0.62;0.00;0.00;0.62;3.20;1.40;;;28.50;27.30;;;;;;2267702;61;20931;-58
2023/09/14 10:33:05;0.00;0.00;0.62;0.00;0.00;0.62;2.27;0.97;;;28.50;27.20;;;;;;2267971;61;21011;-51
2023/09/14 10:35:53;0.00;0.00;0.62;0.00;0.00;0.62;1.83;1.00;;;28.50;27.20;;;;;;2267898;61;20397;-53
2023/09/14 10:38:42;0.00;0.00;0.62;0.00;0.00;0.62;2.37;1.33;;;28.60;27.20;;;;;;2268006;61;20386;-57
2023/09/14 10:41:33;0.00;0.00;0.62;0.00;0.00;0.62;1.87;1.20;;;28.60;27.20;;;;;;2267697;61;20374;-57
2023/09/14 10:44:18;0.00;0.00;0.62;0.00;0.00;0.62;1.97;1.00;;;28.60;27.20;;;;;;2268575;61;20443;-49
2023/09/14 10:47:04;0.00;0.00;0.62;0.00;0.00;0.62;2.30;1.60;;;28.60;27.20;;;;;;2268623;61;20763;-55
2023/09/14 10:49:52;0.00;0.00;0.62;0.00;0.00;0.62;3.23;1.10;;;28.60;27.20;;;;;;2268785;61;20386;-54
2023/09/14 10:52:40;0.00;0.00;0.62;0.00;0.00;0.62;2.10;1.30;;;28.60;27.20;;;;;;2268734;61;20394;-53
2023/09/14 10:55:25;0.00;0.00;0.62;0.00;0.00;0.62;2.03;1.20;;;28.60;27.20;;;;;;2268384;61;20451;-55